createdAt,value
2018-05-31T00:02:08.673Z,22.00
2018-05-31T00:04:36.093Z,21.90
2018-05-31T00:07:03.520Z,21.80
2018-05-31T00:09:30.948Z,21.70
2018-05-31T00:11:59.137Z,21.60
2018-05-31T00:14:27.316Z,21.70
2018-05-31T00:16:55.513Z,21.70
2018-05-31T00:19:23.696Z,21.50
2018-05-31T00:21:51.910Z,21.60
2018-05-31T00:24:19.332Z,21.60
2018-05-31T00:26:46.749Z,21.60
2018-05-31T00:29:14.164Z,21.50
2018-05-31T00:31:41.585Z,21.50
2018-05-31T00:34:09.004Z,21.50
2018-05-31T00:36:36.438Z,21.40
2018-05-31T00:39:03.852Z,21.40
2018-05-31T00:41:31.281Z,21.40
2018-05-31T00:43:58.699Z,21.40
2018-05-31T00:46:26.950Z,21.50
2018-05-31T00:48:54.385Z,21.40
2018-05-31T00:51:21.837Z,21.40
2018-05-31T00:53:49.202Z,21.30
2018-05-31T00:56:17.389Z,21.30
2018-05-31T00:58:45.573Z,21.30
2018-05-31T01:01:13.888Z,21.30
2018-05-31T01:03:41.321Z,21.20
2018-05-31T01:06:09.503Z,21.30
2018-05-31T01:08:36.927Z,21.30
2018-05-31T01:11:04.351Z,21.30
2018-05-31T01:13:32.532Z,21.10
2018-05-31T01:15:59.968Z,21.10
2018-05-31T01:18:27.376Z,21.10
2018-05-31T01:20:55.602Z,21.20
2018-05-31T01:23:23.005Z,21.10
2018-05-31T01:25:50.413Z,21.10
2018-05-31T01:28:18.610Z,21.00
2018-05-31T01:30:46.041Z,21.00
2018-05-31T01:33:13.556Z,21.10
2018-05-31T01:35:40.967Z,21.00
2018-05-31T01:38:20.360Z,21.00
2018-05-31T01:40:48.539Z,20.90
2018-05-31T01:43:16.724Z,20.80
2018-05-31T01:45:44.904Z,20.80
2018-05-31T01:48:12.325Z,20.70
2018-05-31T01:50:39.759Z,20.80
2018-05-31T01:53:07.939Z,20.80
2018-05-31T01:55:36.123Z,20.90
2018-05-31T01:58:03.540Z,20.80
2018-05-31T02:00:30.989Z,20.80
2018-05-31T02:02:58.401Z,20.90
2018-05-31T02:05:25.826Z,20.90
2018-05-31T02:07:53.241Z,21.00
2018-05-31T02:10:21.294Z,21.10
2018-05-31T02:12:48.707Z,21.00
2018-05-31T02:15:17.641Z,21.00
2018-05-31T02:17:45.054Z,21.00
2018-05-31T02:20:12.511Z,21.10
2018-05-31T02:22:39.918Z,21.00
2018-05-31T02:25:07.340Z,21.00
2018-05-31T02:27:34.785Z,20.80
2018-05-31T02:30:02.961Z,20.90
2018-05-31T02:32:31.153Z,20.90
2018-05-31T02:34:59.328Z,20.70
2018-05-31T02:37:26.754Z,20.70
2018-05-31T02:39:54.177Z,20.60
2018-05-31T02:42:22.368Z,20.70
2018-05-31T02:44:49.795Z,20.60
2018-05-31T02:47:17.208Z,20.70
2018-05-31T02:49:45.410Z,20.60
2018-05-31T02:52:12.820Z,20.60
2018-05-31T02:54:40.237Z,20.60
2018-05-31T02:57:07.660Z,20.60
2018-05-31T02:59:35.080Z,20.60
2018-05-31T03:02:02.500Z,20.60
2018-05-31T03:04:29.921Z,20.60
2018-05-31T03:06:57.344Z,20.60
2018-05-31T03:09:24.762Z,20.60
2018-05-31T03:11:52.287Z,20.60
2018-05-31T03:14:19.693Z,20.50
2018-05-31T03:16:47.126Z,20.50
2018-05-31T03:19:14.549Z,20.40
2018-05-31T03:21:41.965Z,20.40
2018-05-31T03:24:09.484Z,20.40
2018-05-31T03:26:36.907Z,20.40
2018-05-31T03:29:04.320Z,20.40
2018-05-31T03:31:31.738Z,20.40
2018-05-31T03:34:00.659Z,20.40
2018-05-31T03:36:28.877Z,20.50
2018-05-31T03:38:56.305Z,20.40
2018-05-31T03:41:23.722Z,20.40
2018-05-31T03:43:51.141Z,20.60
2018-05-31T03:46:18.596Z,20.50
2018-05-31T03:48:46.032Z,20.60
2018-05-31T03:51:13.456Z,20.60
2018-05-31T03:53:40.884Z,20.70
2018-05-31T03:56:08.300Z,20.70
2018-05-31T03:58:35.721Z,21.00
2018-05-31T04:01:03.140Z,21.00
2018-05-31T04:03:30.559Z,21.20
2018-05-31T04:05:58.010Z,21.10
2018-05-31T04:08:25.428Z,21.10
2018-05-31T04:10:52.863Z,21.10
2018-05-31T04:13:20.277Z,21.10
2018-05-31T04:15:47.700Z,21.00
2018-05-31T04:18:15.136Z,21.00
2018-05-31T04:20:43.328Z,21.00
2018-05-31T04:23:11.525Z,21.10
2018-05-31T04:25:38.956Z,21.10
2018-05-31T04:28:06.393Z,21.00
2018-05-31T04:30:33.804Z,21.00
2018-05-31T04:33:01.228Z,21.10
2018-05-31T04:35:28.661Z,21.20
2018-05-31T04:37:56.084Z,21.20
2018-05-31T04:40:23.513Z,21.00
2018-05-31T04:42:50.930Z,20.90
2018-05-31T04:45:18.359Z,21.00
2018-05-31T04:47:45.792Z,21.00
2018-05-31T04:50:13.223Z,21.20
2018-05-31T04:52:40.636Z,21.20
2018-05-31T04:55:08.843Z,21.30
2018-05-31T04:57:37.034Z,21.30
2018-05-31T05:00:04.452Z,21.30
2018-05-31T05:02:32.651Z,21.30
2018-05-31T05:05:00.830Z,21.30
2018-05-31T05:07:29.773Z,21.30
2018-05-31T05:09:57.956Z,21.30
2018-05-31T05:12:26.138Z,21.20
2018-05-31T05:14:54.343Z,21.20
2018-05-31T05:17:21.777Z,21.10
2018-05-31T05:19:49.207Z,21.00
2018-05-31T05:22:16.617Z,20.90
2018-05-31T05:24:44.821Z,20.90
2018-05-31T05:27:13.009Z,21.00
2018-05-31T05:29:41.202Z,20.90
2018-05-31T05:32:09.376Z,20.90
2018-05-31T05:34:37.575Z,20.90
2018-05-31T05:37:05.777Z,20.90
2018-05-31T05:39:33.185Z,20.90
2018-05-31T05:42:00.613Z,20.90
2018-05-31T05:44:28.021Z,21.00
2018-05-31T05:46:55.448Z,21.10
2018-05-31T05:49:22.872Z,21.30
2018-05-31T05:51:50.297Z,21.40
2018-05-31T05:54:17.725Z,21.30
2018-05-31T05:56:45.155Z,21.30
2018-05-31T05:59:12.577Z,21.30
2018-05-31T06:01:40.787Z,21.40
2018-05-31T06:04:08.211Z,21.40
2018-05-31T06:06:36.392Z,21.40
2018-05-31T06:09:03.817Z,21.40
2018-05-31T06:11:31.240Z,21.50
2018-05-31T06:13:58.661Z,21.50
2018-05-31T06:16:26.085Z,21.60
2018-05-31T06:18:53.504Z,21.70
2018-05-31T06:21:20.921Z,21.80
2018-05-31T06:23:48.340Z,21.90
2018-05-31T06:26:15.834Z,22.00
2018-05-31T06:28:43.949Z,22.10
2018-05-31T06:31:12.168Z,22.20
2018-05-31T06:33:39.590Z,22.20
2018-05-31T06:36:07.007Z,22.40
2018-05-31T06:38:34.427Z,22.50
2018-05-31T06:41:01.853Z,22.50
2018-05-31T06:43:29.280Z,22.60
2018-05-31T06:45:56.701Z,22.60
2018-05-31T06:48:24.136Z,22.70
2018-05-31T06:50:52.324Z,22.80
2018-05-31T06:53:20.521Z,22.90
2018-05-31T06:55:48.703Z,23.00
2018-05-31T06:58:16.941Z,23.00
2018-05-31T07:00:44.392Z,23.00
2018-05-31T07:03:12.538Z,23.10
2018-05-31T07:05:39.977Z,23.10
2018-05-31T07:08:07.408Z,23.10
2018-05-31T07:10:34.822Z,23.10
2018-05-31T07:13:02.228Z,23.10
2018-05-31T07:15:29.652Z,23.00
2018-05-31T07:17:57.068Z,23.10
2018-05-31T07:20:24.484Z,23.30
2018-05-31T07:22:51.905Z,23.40
2018-05-31T07:25:20.089Z,23.50
2018-05-31T07:27:47.535Z,23.50
2018-05-31T07:30:14.971Z,23.50
2018-05-31T07:32:42.387Z,23.50
2018-05-31T07:35:09.813Z,23.50
2018-05-31T07:37:37.233Z,23.40
2018-05-31T07:40:05.414Z,23.50
2018-05-31T07:42:33.593Z,23.40
2018-05-31T07:45:01.808Z,23.30
2018-05-31T07:47:29.213Z,23.30
2018-05-31T07:49:56.632Z,23.30
2018-05-31T07:52:24.816Z,23.50
2018-05-31T07:54:53.002Z,23.60
2018-05-31T07:57:21.183Z,23.80
2018-05-31T07:59:49.361Z,23.50
2018-05-31T08:02:16.786Z,23.50
2018-05-31T08:04:44.190Z,23.40
2018-05-31T08:07:11.614Z,23.40
2018-05-31T08:09:39.034Z,23.50
2018-05-31T08:12:06.451Z,23.40
2018-05-31T08:14:33.872Z,23.40
2018-05-31T08:17:01.280Z,23.50
2018-05-31T08:19:28.705Z,23.30
2018-05-31T08:21:56.125Z,23.30
2018-05-31T08:24:23.554Z,23.40
2018-05-31T08:26:50.993Z,23.40
2018-05-31T08:29:18.411Z,23.40
2018-05-31T08:31:46.624Z,23.50
2018-05-31T08:34:14.078Z,23.40
2018-05-31T08:36:42.252Z,23.60
2018-05-31T08:39:10.432Z,23.60
2018-05-31T08:41:38.627Z,23.60
2018-05-31T08:44:06.840Z,23.60
2018-05-31T08:46:35.010Z,23.50
2018-05-31T08:49:02.436Z,23.50
2018-05-31T08:51:29.848Z,23.50
2018-05-31T08:53:57.300Z,23.50
2018-05-31T08:56:25.489Z,23.90
2018-05-31T08:58:53.665Z,24.00
2018-05-31T09:01:21.091Z,24.00
2018-05-31T09:03:48.503Z,24.10
2018-05-31T09:06:15.929Z,24.30
2018-05-31T09:08:43.343Z,24.50
2018-05-31T09:11:10.768Z,24.60
2018-05-31T09:13:38.189Z,24.60
2018-05-31T09:16:06.386Z,24.80
2018-05-31T09:18:34.577Z,25.00
2018-05-31T09:21:02.773Z,25.00
2018-05-31T09:23:30.953Z,25.00
2018-05-31T09:25:59.129Z,25.00
2018-05-31T09:28:27.353Z,25.00
2018-05-31T09:30:55.506Z,25.20
2018-05-31T09:33:23.681Z,25.20
2018-05-31T09:35:51.872Z,25.10
2018-05-31T09:38:20.487Z,25.10
2018-05-31T09:40:48.666Z,25.00
2018-05-31T09:43:16.917Z,25.10
2018-05-31T09:45:44.338Z,25.10
2018-05-31T09:48:11.742Z,25.10
2018-05-31T09:50:39.158Z,25.00
2018-05-31T09:53:07.343Z,25.00
2018-05-31T09:55:35.540Z,25.10
2018-05-31T09:58:02.936Z,25.10
2018-05-31T10:00:36.098Z,25.20
2018-05-31T10:03:04.306Z,25.00
2018-05-31T10:05:32.505Z,25.10
2018-05-31T10:07:59.929Z,25.10
2018-05-31T10:10:27.358Z,25.30
2018-05-31T10:12:55.181Z,25.50
2018-05-31T10:15:22.633Z,25.50
2018-05-31T10:17:53.569Z,25.60
2018-05-31T10:20:20.986Z,25.60
2018-05-31T10:22:49.177Z,25.80
2018-05-31T10:25:17.495Z,25.80
2018-05-31T10:27:45.006Z,25.70
2018-05-31T10:30:12.493Z,25.90
2018-05-31T10:32:39.894Z,25.80
2018-05-31T10:35:07.311Z,26.30
2018-05-31T10:37:34.720Z,26.00
2018-05-31T10:40:03.007Z,26.00
2018-05-31T10:42:30.436Z,25.90
2018-05-31T10:44:57.882Z,25.90
2018-05-31T10:47:30.010Z,26.20
2018-05-31T10:53:01.101Z,26.40
2018-05-31T10:55:29.490Z,26.40
2018-05-31T10:58:00.529Z,26.40
2018-05-31T11:00:28.221Z,26.40
2018-05-31T11:02:55.758Z,26.40
2018-05-31T11:05:23.156Z,26.70
2018-05-31T11:07:50.649Z,26.70
2018-05-31T11:10:18.859Z,26.70
2018-05-31T11:12:46.268Z,26.70
2018-05-31T11:15:13.703Z,26.80
2018-05-31T11:17:41.108Z,26.60
2018-05-31T11:20:08.547Z,26.70
2018-05-31T11:22:35.973Z,26.70
2018-05-31T11:25:04.165Z,27.00
2018-05-31T11:27:32.348Z,27.20
2018-05-31T11:30:00.529Z,27.30
2018-05-31T11:32:27.983Z,27.30
2018-05-31T11:34:55.398Z,27.30
2018-05-31T11:37:22.852Z,27.40
2018-05-31T11:39:51.119Z,27.50
2018-05-31T11:42:18.527Z,27.50
2018-05-31T11:44:46.091Z,27.60
2018-05-31T11:47:14.284Z,27.60
2018-05-31T11:49:41.696Z,27.60
2018-05-31T11:52:09.109Z,27.60
2018-05-31T11:54:37.304Z,27.50
2018-05-31T11:57:05.476Z,27.60
2018-05-31T11:59:33.672Z,27.80
2018-05-31T12:02:01.848Z,27.90
2018-05-31T12:04:30.037Z,28.10
2018-05-31T12:06:58.236Z,28.20
2018-05-31T12:09:25.676Z,28.10
2018-05-31T12:11:53.142Z,28.30
2018-05-31T12:14:20.525Z,28.50
2018-05-31T12:16:48.751Z,28.60
2018-05-31T12:19:16.193Z,28.80
2018-05-31T12:21:44.422Z,28.80
2018-05-31T12:24:11.831Z,28.70
2018-05-31T12:26:39.249Z,28.70
2018-05-31T12:29:06.671Z,29.00
2018-05-31T12:31:34.156Z,29.10
2018-05-31T12:34:01.568Z,29.10
2018-05-31T12:36:28.969Z,29.30
2018-05-31T12:38:56.390Z,29.40
2018-05-31T12:41:23.809Z,29.20
2018-05-31T12:43:51.228Z,29.20
2018-05-31T12:46:18.637Z,28.90
2018-05-31T12:48:46.045Z,28.60
2018-05-31T12:51:14.257Z,29.00
2018-05-31T12:53:41.675Z,29.00
2018-05-31T12:56:09.120Z,28.70
2018-05-31T12:58:36.616Z,28.70
2018-05-31T13:01:04.043Z,28.60
2018-05-31T13:03:31.458Z,28.50
2018-05-31T13:05:58.934Z,28.40
2018-05-31T13:08:26.286Z,28.50
2018-05-31T13:10:53.856Z,28.30
2018-05-31T13:13:21.281Z,28.40
2018-05-31T13:15:48.689Z,28.50
2018-05-31T13:18:16.092Z,28.50
2018-05-31T13:20:44.289Z,27.90
2018-05-31T13:23:11.700Z,27.90
2018-05-31T13:25:39.108Z,27.60
2018-05-31T13:28:07.286Z,27.10
2018-05-31T13:30:34.736Z,27.10
2018-05-31T13:33:02.141Z,26.90
2018-05-31T13:35:30.329Z,26.70
2018-05-31T13:37:58.512Z,26.40
2018-05-31T13:40:26.728Z,26.40
2018-05-31T13:42:54.148Z,26.40
2018-05-31T13:45:21.570Z,26.20
2018-05-31T13:47:48.967Z,26.20
2018-05-31T13:50:16.395Z,26.40
2018-05-31T13:52:43.820Z,26.60
2018-05-31T13:55:11.240Z,26.80
2018-05-31T13:57:38.657Z,26.60
2018-05-31T14:00:06.096Z,26.00
2018-05-31T14:02:33.509Z,26.00
2018-05-31T14:05:01.041Z,25.90
2018-05-31T14:07:28.453Z,25.90
2018-05-31T14:09:55.870Z,26.10
2018-05-31T14:12:23.324Z,26.10
2018-05-31T14:14:51.480Z,25.70
2018-05-31T14:17:19.664Z,25.30
2018-05-31T14:19:47.852Z,25.30
2018-05-31T14:22:15.274Z,25.20
2018-05-31T14:24:42.694Z,25.20
2018-05-31T14:27:10.120Z,25.00
2018-05-31T14:29:37.538Z,25.00
2018-05-31T14:32:05.706Z,25.10
2018-05-31T14:34:33.159Z,25.10
2018-05-31T14:37:00.581Z,24.80
2018-05-31T14:39:28.001Z,24.50
2018-05-31T14:41:55.433Z,24.30
2018-05-31T14:44:22.873Z,24.10
2018-05-31T14:46:50.295Z,23.90
2018-05-31T14:49:17.717Z,24.00
2018-05-31T14:51:45.120Z,24.10
2018-05-31T14:54:12.531Z,24.10
2018-05-31T14:56:39.952Z,24.20
2018-05-31T14:59:07.377Z,24.20
2018-05-31T15:01:35.571Z,24.20
2018-05-31T15:04:03.809Z,24.10
2018-05-31T15:06:31.174Z,24.10
2018-05-31T15:08:58.609Z,24.20
2018-05-31T15:11:26.034Z,24.20
2018-05-31T15:13:53.460Z,24.30
2018-05-31T15:16:20.886Z,24.40
2018-05-31T15:18:48.324Z,24.40
2018-05-31T15:21:15.745Z,24.40
2018-05-31T15:23:43.933Z,25.00
2018-05-31T15:26:12.149Z,25.20
2018-05-31T15:28:39.551Z,25.20
2018-05-31T15:31:06.995Z,25.30
2018-05-31T15:33:34.399Z,25.30
2018-05-31T15:36:01.839Z,25.60
2018-05-31T15:38:29.241Z,26.10
2018-05-31T15:40:56.734Z,26.60
2018-05-31T15:43:24.908Z,27.40
2018-05-31T15:45:53.100Z,28.20
2018-05-31T15:48:21.282Z,28.90
2018-05-31T15:50:48.693Z,28.90
2018-05-31T15:53:16.137Z,29.40
2018-05-31T15:55:43.546Z,29.50
2018-05-31T15:58:10.999Z,29.90
2018-05-31T16:00:38.414Z,30.50
2018-05-31T16:03:05.820Z,30.90
2018-05-31T16:05:34.011Z,31.30
2018-05-31T16:08:02.180Z,31.50
2018-05-31T16:10:29.619Z,31.50
2018-05-31T16:12:57.022Z,31.50
2018-05-31T16:15:25.209Z,31.50
2018-05-31T16:17:53.396Z,31.90
2018-05-31T16:20:21.565Z,32.10
2018-05-31T16:22:49.019Z,32.10
2018-05-31T16:25:16.442Z,32.00
2018-05-31T16:27:43.853Z,32.20
2018-05-31T16:30:11.284Z,31.70
2018-05-31T16:32:38.709Z,30.80
2018-05-31T16:35:06.179Z,30.40
2018-05-31T16:37:33.550Z,30.70
2018-05-31T16:40:00.984Z,30.80
2018-05-31T16:42:28.403Z,31.00
2018-05-31T16:44:56.601Z,30.80
2018-05-31T16:47:24.793Z,31.00
2018-05-31T16:49:52.209Z,30.90
2018-05-31T16:52:19.628Z,30.80
2018-05-31T16:54:47.055Z,30.70
2018-05-31T16:57:14.492Z,30.20
2018-05-31T16:59:41.914Z,31.80
2018-05-31T17:02:09.349Z,31.80
2018-05-31T17:04:36.768Z,32.20
2018-05-31T17:07:04.963Z,32.50
2018-05-31T17:09:33.134Z,33.20
2018-05-31T17:12:01.321Z,34.00
2018-05-31T17:14:29.508Z,33.90
2018-05-31T17:16:57.776Z,34.00
2018-05-31T17:19:25.362Z,34.00
2018-05-31T17:21:52.764Z,33.60
2018-05-31T17:24:20.185Z,33.60
2018-05-31T17:26:47.601Z,34.00
2018-05-31T17:29:15.022Z,33.30
2018-05-31T17:31:42.507Z,32.70
2018-05-31T17:34:09.887Z,32.30
2018-05-31T17:36:38.079Z,29.70
2018-05-31T17:39:06.262Z,29.20
2018-05-31T17:41:34.460Z,28.90
2018-05-31T17:44:01.884Z,28.90
2018-05-31T17:46:29.311Z,29.10
2018-05-31T17:48:56.734Z,28.40
2018-05-31T17:51:24.157Z,28.30
2018-05-31T17:53:51.583Z,28.60
2018-05-31T17:56:18.998Z,28.80
2018-05-31T17:58:46.447Z,29.10
2018-05-31T18:01:13.893Z,28.90
2018-05-31T18:03:41.308Z,28.70
2018-05-31T18:06:08.725Z,28.80
2018-05-31T18:08:36.157Z,28.80
2018-05-31T18:11:03.586Z,28.90
2018-05-31T18:13:31.786Z,27.70
2018-05-31T18:15:59.277Z,27.60
2018-05-31T18:18:26.725Z,27.30
2018-05-31T18:20:54.140Z,27.00
2018-05-31T18:23:21.561Z,26.70
2018-05-31T18:25:48.985Z,26.50
2018-05-31T18:28:16.402Z,26.20
2018-05-31T18:30:43.809Z,26.00
2018-05-31T18:33:11.233Z,25.90
2018-05-31T18:35:39.420Z,25.70
2018-05-31T18:38:06.832Z,25.60
2018-05-31T18:40:34.254Z,25.60
2018-05-31T18:43:02.431Z,25.10
2018-05-31T18:45:30.620Z,25.10
2018-05-31T18:47:58.047Z,25.10
2018-05-31T18:50:25.469Z,25.10
2018-05-31T18:52:53.676Z,25.20
2018-05-31T18:55:21.096Z,25.20
2018-05-31T18:57:48.507Z,25.20
2018-05-31T19:00:15.917Z,25.10
2018-05-31T19:02:43.407Z,25.00
2018-05-31T19:05:10.812Z,24.90
2018-05-31T19:07:38.232Z,24.80
2018-05-31T19:10:05.670Z,24.70
2018-05-31T19:12:38.862Z,24.70
2018-05-31T19:15:06.290Z,24.70
2018-05-31T19:17:33.698Z,24.70
2018-05-31T19:20:01.139Z,24.60
2018-05-31T19:22:28.554Z,24.60
2018-05-31T19:25:02.409Z,24.60
2018-05-31T19:27:29.845Z,24.50
2018-05-31T19:30:03.016Z,24.50
2018-05-31T19:32:31.232Z,24.30
2018-05-31T19:34:58.649Z,24.30
2018-05-31T19:37:26.111Z,24.20
2018-05-31T19:39:53.537Z,24.30
2018-05-31T19:42:26.713Z,24.30
2018-05-31T19:44:54.919Z,24.20
2018-05-31T19:47:22.350Z,24.20
2018-05-31T19:49:49.778Z,24.20
2018-05-31T19:52:22.841Z,24.20
2018-05-31T19:54:51.036Z,23.90
2018-05-31T19:57:19.224Z,23.90
2018-05-31T19:59:52.428Z,23.80
2018-05-31T20:02:26.227Z,23.70
2018-05-31T20:04:53.665Z,23.70
2018-05-31T20:07:21.848Z,23.60
2018-05-31T20:09:49.296Z,23.60
2018-05-31T20:12:16.721Z,23.50
2018-05-31T20:14:44.136Z,23.50
2018-05-31T20:17:11.569Z,23.40
2018-05-31T20:19:39.760Z,23.30
2018-05-31T20:22:07.945Z,23.30
2018-05-31T20:24:36.159Z,23.20
2018-05-31T20:27:03.577Z,23.20
2018-05-31T20:29:30.998Z,23.10
2018-05-31T20:31:58.455Z,23.10
2018-05-31T20:34:25.878Z,23.10
2018-05-31T20:36:53.317Z,23.00
2018-05-31T20:39:20.733Z,22.90
2018-05-31T20:41:48.194Z,22.90
2018-05-31T20:44:16.369Z,22.80
2018-05-31T20:46:43.795Z,22.80
2018-05-31T20:49:11.976Z,22.90
2018-05-31T20:51:39.416Z,22.90
2018-05-31T20:54:06.837Z,22.90
2018-05-31T20:56:34.253Z,23.00
2018-05-31T20:59:01.703Z,23.00
2018-05-31T21:01:29.129Z,23.00
2018-05-31T21:03:56.541Z,23.00
2018-05-31T21:06:23.961Z,23.00
2018-05-31T21:08:51.394Z,23.10
2018-05-31T21:11:18.817Z,23.10
2018-05-31T21:13:46.237Z,23.10
2018-05-31T21:16:13.664Z,23.10
2018-05-31T21:18:41.093Z,23.10
2018-05-31T21:21:09.288Z,22.90
2018-05-31T21:23:37.470Z,22.90
2018-05-31T21:26:05.654Z,22.80
2018-05-31T21:28:33.840Z,22.90
2018-05-31T21:31:02.024Z,22.90
2018-05-31T21:33:30.234Z,22.80
2018-05-31T21:35:57.655Z,22.80
2018-05-31T21:38:25.520Z,22.80
2018-05-31T21:40:52.936Z,22.70
2018-05-31T21:43:21.121Z,22.70
2018-05-31T21:45:48.541Z,22.60
2018-05-31T21:48:15.976Z,22.70
2018-05-31T21:50:43.399Z,22.70
2018-05-31T21:53:10.819Z,22.60
2018-05-31T21:55:38.245Z,22.60
2018-05-31T21:58:05.695Z,22.60
2018-05-31T22:00:38.687Z,22.60
2018-05-31T22:03:06.100Z,22.50
2018-05-31T22:05:34.332Z,22.50
2018-05-31T22:08:02.493Z,22.40
2018-05-31T22:10:30.674Z,22.40
2018-05-31T22:12:58.873Z,22.30
2018-05-31T22:15:26.297Z,22.30
2018-05-31T22:17:53.721Z,22.30
2018-05-31T22:20:21.167Z,22.30
2018-05-31T22:22:48.550Z,22.20
2018-05-31T22:25:15.968Z,22.20
2018-05-31T22:27:43.395Z,22.20
2018-05-31T22:30:10.810Z,22.20
2018-05-31T22:32:38.235Z,22.20
2018-05-31T22:35:05.679Z,22.30
2018-05-31T22:37:33.860Z,22.20
2018-05-31T22:40:02.053Z,22.10
2018-05-31T22:42:30.246Z,21.90
2018-05-31T22:44:58.437Z,21.90
2018-05-31T22:47:25.861Z,21.90
2018-05-31T22:49:53.276Z,21.80
2018-05-31T22:52:20.715Z,21.80
2018-05-31T22:54:48.140Z,21.70
2018-05-31T22:57:15.565Z,21.70
2018-05-31T22:59:42.992Z,21.70
2018-05-31T23:02:11.170Z,21.70
2018-05-31T23:04:38.599Z,21.70
2018-05-31T23:07:06.779Z,21.60
2018-05-31T23:09:34.968Z,21.60
2018-05-31T23:12:03.169Z,21.60
2018-05-31T23:14:31.341Z,21.60
2018-05-31T23:16:59.532Z,21.60
2018-05-31T23:19:27.711Z,21.60
2018-05-31T23:21:55.145Z,21.50
2018-05-31T23:24:22.564Z,21.60
2018-05-31T23:26:49.992Z,21.60
2018-05-31T23:29:17.414Z,21.50
2018-05-31T23:31:44.832Z,21.50
2018-05-31T23:34:12.297Z,21.50
2018-05-31T23:36:39.730Z,21.50
2018-05-31T23:39:07.142Z,21.50
2018-05-31T23:41:34.577Z,21.50
2018-05-31T23:44:02.015Z,21.50
2018-05-31T23:46:30.249Z,21.60
2018-05-31T23:48:57.664Z,21.60
2018-05-31T23:51:25.849Z,21.60
2018-05-31T23:53:54.045Z,21.60
2018-05-31T23:56:22.240Z,21.60
2018-05-31T23:58:50.421Z,21.60
